sensor_id;sensor_type;location;lat;lon;timestamp;P1;durP1;ratioP1;P2;durP2;ratioP2
22673;SDS011;11504;43.334;21.918;2023-03-23T00:04:36;74.0;;;71.0;;
22673;SDS011;11504;43.334;21.918;2023-03-23T00:09:15;74.0;;;71.0;;
22673;SDS011;11504;43.334;21.918;2023-03-23T00:13:53;62.0;;;59.0;;
22673;SDS011;11504;43.334;21.918;2023-03-23T00:18:30;62.0;;;59.0;;
22673;SDS011;11504;43.334;21.918;2023-03-23T00:23:07;49.0;;;47.0;;
22673;SDS011;11504;43.334;21.918;2023-03-23T00:27:43;49.0;;;47.0;;
22673;SDS011;11504;43.334;21.918;2023-03-23T00:32:22;49.0;;;47.0;;
22673;SDS011;11504;43.334;21.918;2023-03-23T00:37:00;44.0;;;42.0;;
22673;SDS011;11504;43.334;21.918;2023-03-23T00:41:36;44.0;;;42.0;;
22673;SDS011;11504;43.334;21.918;2023-03-23T00:46:12;39.0;;;36.0;;
22673;SDS011;11504;43.334;21.918;2023-03-23T00:50:51;39.0;;;36.0;;
22673;SDS011;11504;43.334;21.918;2023-03-23T00:55:27;39.0;;;36.0;;
22673;SDS011;11504;43.334;21.918;2023-03-23T01:00:07;39.0;;;36.0;;
22673;SDS011;11504;43.334;21.918;2023-03-23T01:14:00;38.0;;;36.0;;
22673;SDS011;11504;43.334;21.918;2023-03-23T01:18:39;38.0;;;36.0;;
22673;SDS011;11504;43.334;21.918;2023-03-23T01:23:16;38.0;;;36.0;;
22673;SDS011;11504;43.334;21.918;2023-03-23T01:27:52;38.0;;;36.0;;
22673;SDS011;11504;43.334;21.918;2023-03-23T01:32:29;38.0;;;36.0;;
22673;SDS011;11504;43.334;21.918;2023-03-23T01:37:06;44.0;;;41.0;;
22673;SDS011;11504;43.334;21.918;2023-03-23T01:41:42;44.0;;;41.0;;
22673;SDS011;11504;43.334;21.918;2023-03-23T01:46:19;50.0;;;46.0;;
22673;SDS011;11504;43.334;21.918;2023-03-23T01:51:04;50.0;;;46.0;;
22673;SDS011;11504;43.334;21.918;2023-03-23T01:55:53;51.0;;;47.0;;
22673;SDS011;11504;43.334;21.918;2023-03-23T02:00:34;51.0;;;47.0;;
22673;SDS011;11504;43.334;21.918;2023-03-23T02:05:24;52.0;;;48.0;;
22673;SDS011;11504;43.334;21.918;2023-03-23T02:10:13;52.0;;;48.0;;
22673;SDS011;11504;43.334;21.918;2023-03-23T02:14:49;52.0;;;48.0;;
22673;SDS011;11504;43.334;21.918;2023-03-23T02:20:06;52.0;;;48.0;;
22673;SDS011;11504;43.334;21.918;2023-03-23T02:26:09;51.0;;;48.0;;
22673;SDS011;11504;43.334;21.918;2023-03-23T02:32:16;51.0;;;48.0;;
22673;SDS011;11504;43.334;21.918;2023-03-23T02:39:01;52.0;;;48.0;;
22673;SDS011;11504;43.334;21.918;2023-03-23T02:44:02;52.0;;;49.0;;
22673;SDS011;11504;43.334;21.918;2023-03-23T02:48:50;52.0;;;49.0;;
22673;SDS011;11504;43.334;21.918;2023-03-23T02:53:42;50.0;;;48.0;;
22673;SDS011;11504;43.334;21.918;2023-03-23T02:58:25;50.0;;;48.0;;
22673;SDS011;11504;43.334;21.918;2023-03-23T03:03:11;49.0;;;47.0;;
22673;SDS011;11504;43.334;21.918;2023-03-23T03:08:18;49.0;;;47.0;;
22673;SDS011;11504;43.334;21.918;2023-03-23T03:13:24;40.0;;;38.0;;
22673;SDS011;11504;43.334;21.918;2023-03-23T03:18:28;40.0;;;38.0;;
22673;SDS011;11504;43.334;21.918;2023-03-23T03:23:12;31.0;;;29.0;;
22673;SDS011;11504;43.334;21.918;2023-03-23T03:27:51;31.0;;;29.0;;
22673;SDS011;11504;43.334;21.918;2023-03-23T03:32:40;31.0;;;29.0;;
22673;SDS011;11504;43.334;21.918;2023-03-23T03:37:25;32.0;;;30.0;;
22673;SDS011;11504;43.334;21.918;2023-03-23T03:42:04;32.0;;;30.0;;
22673;SDS011;11504;43.334;21.918;2023-03-23T03:46:42;32.0;;;31.0;;
22673;SDS011;11504;43.334;21.918;2023-03-23T03:51:19;32.0;;;31.0;;
22673;SDS011;11504;43.334;21.918;2023-03-23T03:55:56;32.0;;;30.0;;
22673;SDS011;11504;43.334;21.918;2023-03-23T04:00:33;32.0;;;30.0;;
22673;SDS011;11504;43.334;21.918;2023-03-23T04:05:10;31.0;;;30.0;;
22673;SDS011;11504;43.334;21.918;2023-03-23T04:09:47;31.0;;;30.0;;
22673;SDS011;11504;43.334;21.918;2023-03-23T04:14:24;27.0;;;26.0;;
22673;SDS011;11504;43.334;21.918;2023-03-23T04:19:02;27.0;;;26.0;;
22673;SDS011;11504;43.334;21.918;2023-03-23T04:23:38;23.0;;;22.0;;
22673;SDS011;11504;43.334;21.918;2023-03-23T04:28:16;23.0;;;22.0;;
22673;SDS011;11504;43.334;21.918;2023-03-23T04:32:53;23.0;;;22.0;;
22673;SDS011;11504;43.334;21.918;2023-03-23T04:37:30;24.0;;;23.0;;
22673;SDS011;11504;43.334;21.918;2023-03-23T04:42:07;24.0;;;23.0;;
22673;SDS011;11504;43.334;21.918;2023-03-23T04:46:44;25.0;;;24.0;;
22673;SDS011;11504;43.334;21.918;2023-03-23T04:51:21;25.0;;;24.0;;
22673;SDS011;11504;43.334;21.918;2023-03-23T04:55:58;26.0;;;24.0;;
22673;SDS011;11504;43.334;21.918;2023-03-23T05:00:36;26.0;;;24.0;;
22673;SDS011;11504;43.334;21.918;2023-03-23T05:05:14;27.0;;;25.0;;
22673;SDS011;11504;43.334;21.918;2023-03-23T05:09:51;27.0;;;25.0;;
22673;SDS011;11504;43.334;21.918;2023-03-23T05:14:27;26.0;;;24.0;;
22673;SDS011;11504;43.334;21.918;2023-03-23T05:19:04;26.0;;;24.0;;
22673;SDS011;11504;43.334;21.918;2023-03-23T05:23:41;26.0;;;24.0;;
22673;SDS011;11504;43.334;21.918;2023-03-23T05:28:18;26.0;;;24.0;;
22673;SDS011;11504;43.334;21.918;2023-03-23T05:32:55;26.0;;;24.0;;
22673;SDS011;11504;43.334;21.918;2023-03-23T05:37:32;30.0;;;28.0;;
22673;SDS011;11504;43.334;21.918;2023-03-23T05:42:08;30.0;;;28.0;;
22673;SDS011;11504;43.334;21.918;2023-03-23T05:46:45;33.0;;;31.0;;
22673;SDS011;11504;43.334;21.918;2023-03-23T05:51:22;33.0;;;31.0;;
22673;SDS011;11504;43.334;21.918;2023-03-23T05:56:00;31.0;;;30.0;;
22673;SDS011;11504;43.334;21.918;2023-03-23T06:00:36;31.0;;;30.0;;
22673;SDS011;11504;43.334;21.918;2023-03-23T06:05:12;29.0;;;28.0;;
22673;SDS011;11504;43.334;21.918;2023-03-23T06:09:50;29.0;;;28.0;;
22673;SDS011;11504;43.334;21.918;2023-03-23T06:14:26;28.0;;;27.0;;
22673;SDS011;11504;43.334;21.918;2023-03-23T06:19:03;28.0;;;27.0;;
22673;SDS011;11504;43.334;21.918;2023-03-23T06:23:40;28.0;;;26.0;;
22673;SDS011;11504;43.334;21.918;2023-03-23T06:28:16;28.0;;;26.0;;
22673;SDS011;11504;43.334;21.918;2023-03-23T06:32:53;28.0;;;26.0;;
22673;SDS011;11504;43.334;21.918;2023-03-23T06:37:30;30.0;;;28.0;;
22673;SDS011;11504;43.334;21.918;2023-03-23T06:42:10;30.0;;;28.0;;
22673;SDS011;11504;43.334;21.918;2023-03-23T06:46:48;33.0;;;31.0;;
22673;SDS011;11504;43.334;21.918;2023-03-23T06:51:25;33.0;;;31.0;;
22673;SDS011;11504;43.334;21.918;2023-03-23T06:56:02;32.0;;;30.0;;
22673;SDS011;11504;43.334;21.918;2023-03-23T07:00:39;32.0;;;30.0;;
22673;SDS011;11504;43.334;21.918;2023-03-23T07:05:16;31.0;;;30.0;;
22673;SDS011;11504;43.334;21.918;2023-03-23T07:09:53;31.0;;;30.0;;
22673;SDS011;11504;43.334;21.918;2023-03-23T07:14:29;29.0;;;28.0;;
22673;SDS011;11504;43.334;21.918;2023-03-23T07:19:06;29.0;;;28.0;;
22673;SDS011;11504;43.334;21.918;2023-03-23T07:23:42;27.0;;;26.0;;
22673;SDS011;11504;43.334;21.918;2023-03-23T07:28:19;27.0;;;26.0;;
22673;SDS011;11504;43.334;21.918;2023-03-23T07:32:56;27.0;;;26.0;;
22673;SDS011;11504;43.334;21.918;2023-03-23T07:37:34;27.0;;;26.0;;
22673;SDS011;11504;43.334;21.918;2023-03-23T07:42:11;27.0;;;26.0;;
22673;SDS011;11504;43.334;21.918;2023-03-23T07:46:49;27.0;;;26.0;;
22673;SDS011;11504;43.334;21.918;2023-03-23T07:51:26;27.0;;;26.0;;
22673;SDS011;11504;43.334;21.918;2023-03-23T07:56:04;25.0;;;24.0;;
22673;SDS011;11504;43.334;21.918;2023-03-23T08:00:43;25.0;;;24.0;;
22673;SDS011;11504;43.334;21.918;2023-03-23T08:05:23;23.0;;;21.0;;
22673;SDS011;11504;43.334;21.918;2023-03-23T08:10:03;23.0;;;21.0;;
22673;SDS011;11504;43.334;21.918;2023-03-23T08:14:44;21.0;;;20.0;;
22673;SDS011;11504;43.334;21.918;2023-03-23T08:19:21;21.0;;;20.0;;
22673;SDS011;11504;43.334;21.918;2023-03-23T08:23:58;19.0;;;18.0;;
22673;SDS011;11504;43.334;21.918;2023-03-23T08:28:38;19.0;;;18.0;;
22673;SDS011;11504;43.334;21.918;2023-03-23T08:33:14;19.0;;;18.0;;
22673;SDS011;11504;43.334;21.918;2023-03-23T08:37:51;19.0;;;18.0;;
22673;SDS011;11504;43.334;21.918;2023-03-23T08:42:27;19.0;;;18.0;;
22673;SDS011;11504;43.334;21.918;2023-03-23T08:47:04;19.0;;;18.0;;
22673;SDS011;11504;43.334;21.918;2023-03-23T08:51:41;19.0;;;18.0;;
22673;SDS011;11504;43.334;21.918;2023-03-23T08:56:18;19.0;;;18.0;;
22673;SDS011;11504;43.334;21.918;2023-03-23T09:00:55;19.0;;;18.0;;
22673;SDS011;11504;43.334;21.918;2023-03-23T09:05:31;19.0;;;18.0;;
22673;SDS011;11504;43.334;21.918;2023-03-23T09:10:10;19.0;;;18.0;;
22673;SDS011;11504;43.334;21.918;2023-03-23T09:14:49;20.0;;;19.0;;
22673;SDS011;11504;43.334;21.918;2023-03-23T09:19:27;20.0;;;19.0;;
22673;SDS011;11504;43.334;21.918;2023-03-23T09:24:05;21.0;;;20.0;;
22673;SDS011;11504;43.334;21.918;2023-03-23T09:28:42;21.0;;;20.0;;
22673;SDS011;11504;43.334;21.918;2023-03-23T09:33:19;21.0;;;20.0;;
22673;SDS011;11504;43.334;21.918;2023-03-23T09:37:56;22.0;;;22.0;;
22673;SDS011;11504;43.334;21.918;2023-03-23T09:43:01;22.0;;;22.0;;
22673;SDS011;11504;43.334;21.918;2023-03-23T09:48:26;24.0;;;23.0;;
22673;SDS011;11504;43.334;21.918;2023-03-23T09:53:19;24.0;;;23.0;;
22673;SDS011;11504;43.334;21.918;2023-03-23T09:58:20;23.0;;;22.0;;
22673;SDS011;11504;43.334;21.918;2023-03-23T10:03:16;23.0;;;22.0;;
22673;SDS011;11504;43.334;21.918;2023-03-23T10:08:11;22.0;;;21.0;;
22673;SDS011;11504;43.334;21.918;2023-03-23T10:13:14;22.0;;;21.0;;
22673;SDS011;11504;43.334;21.918;2023-03-23T10:18:43;20.0;;;19.0;;
22673;SDS011;11504;43.334;21.918;2023-03-23T10:23:55;18.0;;;17.0;;
22673;SDS011;11504;43.334;21.918;2023-03-23T10:28:46;18.0;;;17.0;;
22673;SDS011;11504;43.334;21.918;2023-03-23T10:33:41;17.0;;;16.0;;
22673;SDS011;11504;43.334;21.918;2023-03-23T10:38:34;17.0;;;16.0;;
22673;SDS011;11504;43.334;21.918;2023-03-23T10:43:28;16.0;;;15.0;;
22673;SDS011;11504;43.334;21.918;2023-03-23T10:48:15;16.0;;;15.0;;
22673;SDS011;11504;43.334;21.918;2023-03-23T10:53:20;16.0;;;15.0;;
22673;SDS011;11504;43.334;21.918;2023-03-23T10:58:26;16.0;;;15.0;;
22673;SDS011;11504;43.334;21.918;2023-03-23T11:03:42;16.0;;;15.0;;
22673;SDS011;11504;43.334;21.918;2023-03-23T11:08:30;16.0;;;15.0;;
22673;SDS011;11504;43.334;21.918;2023-03-23T11:13:17;16.0;;;15.0;;
22673;SDS011;11504;43.334;21.918;2023-03-23T11:18:03;16.0;;;15.0;;
22673;SDS011;11504;43.334;21.918;2023-03-23T11:22:47;16.0;;;15.0;;
22673;SDS011;11504;43.334;21.918;2023-03-23T11:37:07;15.0;;;14.0;;
22673;SDS011;11504;43.334;21.918;2023-03-23T11:41:46;15.0;;;14.0;;
22673;SDS011;11504;43.334;21.918;2023-03-23T11:47:00;15.0;;;14.0;;
22673;SDS011;11504;43.334;21.918;2023-03-23T11:51:52;15.0;;;14.0;;
22673;SDS011;11504;43.334;21.918;2023-03-23T11:56:39;15.0;;;14.0;;
22673;SDS011;11504;43.334;21.918;2023-03-23T12:01:48;15.0;;;14.0;;
22673;SDS011;11504;43.334;21.918;2023-03-23T12:57:55;15.0;;;14.0;;
22673;SDS011;11504;43.334;21.918;2023-03-23T13:02:57;15.0;;;14.0;;
22673;SDS011;11504;43.334;21.918;2023-03-23T13:08:01;15.0;;;14.0;;
22673;SDS011;11504;43.334;21.918;2023-03-23T13:12:51;15.0;;;14.0;;
22673;SDS011;11504;43.334;21.918;2023-03-23T13:17:55;15.0;;;14.0;;
22673;SDS011;11504;43.334;21.918;2023-03-23T13:23:04;15.0;;;14.0;;
22673;SDS011;11504;43.334;21.918;2023-03-23T13:37:27;15.0;;;14.0;;
22673;SDS011;11504;43.334;21.918;2023-03-23T13:42:24;15.0;;;14.0;;
22673;SDS011;11504;43.334;21.918;2023-03-23T13:47:34;15.0;;;14.0;;
22673;SDS011;11504;43.334;21.918;2023-03-23T13:52:38;15.0;;;14.0;;
22673;SDS011;11504;43.334;21.918;2023-03-23T13:57:49;14.0;;;14.0;;
22673;SDS011;11504;43.334;21.918;2023-03-23T14:02:37;14.0;;;14.0;;
22673;SDS011;11504;43.334;21.918;2023-03-23T14:07:17;13.0;;;13.0;;
22673;SDS011;11504;43.334;21.918;2023-03-23T14:11:59;13.0;;;13.0;;
22673;SDS011;11504;43.334;21.918;2023-03-23T14:16:44;12.0;;;11.0;;
22673;SDS011;11504;43.334;21.918;2023-03-23T14:21:37;12.0;;;11.0;;
22673;SDS011;11504;43.334;21.918;2023-03-23T14:26:28;10.0;;;9.0;;
22673;SDS011;11504;43.334;21.918;2023-03-23T14:31:20;10.0;;;9.0;;
22673;SDS011;11504;43.334;21.918;2023-03-23T14:36:05;11.0;;;10.0;;
22673;SDS011;11504;43.334;21.918;2023-03-23T14:40:43;11.0;;;10.0;;
22673;SDS011;11504;43.334;21.918;2023-03-23T14:45:24;12.0;;;12.0;;
22673;SDS011;11504;43.334;21.918;2023-03-23T14:50:22;12.0;;;12.0;;
22673;SDS011;11504;43.334;21.918;2023-03-23T14:55:20;10.0;;;10.0;;
22673;SDS011;11504;43.334;21.918;2023-03-23T14:59:59;10.0;;;10.0;;
22673;SDS011;11504;43.334;21.918;2023-03-23T15:04:36;9.0;;;8.0;;
22673;SDS011;11504;43.334;21.918;2023-03-23T15:09:19;9.0;;;8.0;;
22673;SDS011;11504;43.334;21.918;2023-03-23T15:14:15;10.0;;;9.0;;
22673;SDS011;11504;43.334;21.918;2023-03-23T15:18:58;10.0;;;9.0;;
22673;SDS011;11504;43.334;21.918;2023-03-23T15:23:43;10.0;;;10.0;;
22673;SDS011;11504;43.334;21.918;2023-03-23T15:28:29;10.0;;;10.0;;
22673;SDS011;11504;43.334;21.918;2023-03-23T15:33:13;10.0;;;10.0;;
22673;SDS011;11504;43.334;21.918;2023-03-23T15:37:59;10.0;;;10.0;;
22673;SDS011;11504;43.334;21.918;2023-03-23T15:42:39;10.0;;;10.0;;
22673;SDS011;11504;43.334;21.918;2023-03-23T15:47:19;11.0;;;10.0;;
22673;SDS011;11504;43.334;21.918;2023-03-23T15:51:56;11.0;;;10.0;;
22673;SDS011;11504;43.334;21.918;2023-03-23T15:56:32;11.0;;;10.0;;
22673;SDS011;11504;43.334;21.918;2023-03-23T16:01:16;11.0;;;10.0;;
22673;SDS011;11504;43.334;21.918;2023-03-23T16:15:25;15.0;;;14.0;;
22673;SDS011;11504;43.334;21.918;2023-03-23T16:20:13;15.0;;;14.0;;
22673;SDS011;11504;43.334;21.918;2023-03-23T16:24:51;15.0;;;14.0;;
22673;SDS011;11504;43.334;21.918;2023-03-23T16:29:27;15.0;;;14.0;;
22673;SDS011;11504;43.334;21.918;2023-03-23T16:34:04;20.0;;;19.0;;
22673;SDS011;11504;43.334;21.918;2023-03-23T16:38:41;20.0;;;19.0;;
22673;SDS011;11504;43.334;21.918;2023-03-23T16:43:20;20.0;;;19.0;;
22673;SDS011;11504;43.334;21.918;2023-03-23T16:47:56;26.0;;;24.0;;
22673;SDS011;11504;43.334;21.918;2023-03-23T16:52:34;26.0;;;24.0;;
22673;SDS011;11504;43.334;21.918;2023-03-23T16:57:11;26.0;;;24.0;;
22673;SDS011;11504;43.334;21.918;2023-03-23T17:01:47;26.0;;;24.0;;
22673;SDS011;11504;43.334;21.918;2023-03-23T17:06:25;26.0;;;25.0;;
22673;SDS011;11504;43.334;21.918;2023-03-23T17:11:01;26.0;;;25.0;;
22673;SDS011;11504;43.334;21.918;2023-03-23T17:15:44;22.0;;;22.0;;
22673;SDS011;11504;43.334;21.918;2023-03-23T17:20:23;22.0;;;22.0;;
22673;SDS011;11504;43.334;21.918;2023-03-23T17:24:59;19.0;;;18.0;;
22673;SDS011;11504;43.334;21.918;2023-03-23T17:29:36;19.0;;;18.0;;
22673;SDS011;11504;43.334;21.918;2023-03-23T17:34:12;20.0;;;19.0;;
22673;SDS011;11504;43.334;21.918;2023-03-23T17:38:49;20.0;;;19.0;;
22673;SDS011;11504;43.334;21.918;2023-03-23T17:43:26;20.0;;;19.0;;
22673;SDS011;11504;43.334;21.918;2023-03-23T17:48:06;21.0;;;20.0;;
22673;SDS011;11504;43.334;21.918;2023-03-23T17:52:42;21.0;;;20.0;;
22673;SDS011;11504;43.334;21.918;2023-03-23T17:57:19;18.0;;;17.0;;
22673;SDS011;11504;43.334;21.918;2023-03-23T18:01:55;18.0;;;17.0;;
22673;SDS011;11504;43.334;21.918;2023-03-23T18:06:32;15.0;;;14.0;;
22673;SDS011;11504;43.334;21.918;2023-03-23T18:11:09;15.0;;;14.0;;
22673;SDS011;11504;43.334;21.918;2023-03-23T18:15:47;16.0;;;15.0;;
22673;SDS011;11504;43.334;21.918;2023-03-23T18:20:26;16.0;;;15.0;;
22673;SDS011;11504;43.334;21.918;2023-03-23T18:25:04;17.0;;;16.0;;
22673;SDS011;11504;43.334;21.918;2023-03-23T18:29:42;17.0;;;16.0;;
22673;SDS011;11504;43.334;21.918;2023-03-23T18:34:19;20.0;;;18.0;;
22673;SDS011;11504;43.334;21.918;2023-03-23T18:38:57;20.0;;;18.0;;
22673;SDS011;11504;43.334;21.918;2023-03-23T18:43:34;20.0;;;18.0;;
22673;SDS011;11504;43.334;21.918;2023-03-23T18:48:14;22.0;;;21.0;;
22673;SDS011;11504;43.334;21.918;2023-03-23T18:52:51;22.0;;;21.0;;
22673;SDS011;11504;43.334;21.918;2023-03-23T18:57:28;32.0;;;31.0;;
22673;SDS011;11504;43.334;21.918;2023-03-23T19:02:05;32.0;;;31.0;;
22673;SDS011;11504;43.334;21.918;2023-03-23T19:06:42;43.0;;;41.0;;
22673;SDS011;11504;43.334;21.918;2023-03-23T19:11:21;43.0;;;41.0;;
22673;SDS011;11504;43.334;21.918;2023-03-23T19:16:01;45.0;;;43.0;;
22673;SDS011;11504;43.334;21.918;2023-03-23T19:20:40;45.0;;;43.0;;
22673;SDS011;11504;43.334;21.918;2023-03-23T19:25:18;47.0;;;45.0;;
22673;SDS011;11504;43.334;21.918;2023-03-23T19:29:54;47.0;;;45.0;;
22673;SDS011;11504;43.334;21.918;2023-03-23T19:34:31;50.0;;;47.0;;
22673;SDS011;11504;43.334;21.918;2023-03-23T19:39:07;50.0;;;47.0;;
22673;SDS011;11504;43.334;21.918;2023-03-23T19:43:44;50.0;;;47.0;;
22673;SDS011;11504;43.334;21.918;2023-03-23T19:48:21;52.0;;;49.0;;
22673;SDS011;11504;43.334;21.918;2023-03-23T19:52:58;52.0;;;49.0;;
22673;SDS011;11504;43.334;21.918;2023-03-23T19:57:35;50.0;;;47.0;;
22673;SDS011;11504;43.334;21.918;2023-03-23T20:02:12;50.0;;;47.0;;
22673;SDS011;11504;43.334;21.918;2023-03-23T20:06:50;47.0;;;45.0;;
22673;SDS011;11504;43.334;21.918;2023-03-23T20:11:29;47.0;;;45.0;;
22673;SDS011;11504;43.334;21.918;2023-03-23T20:22:01;48.0;;;46.0;;
22673;SDS011;11504;43.334;21.918;2023-03-23T20:26:42;48.0;;;46.0;;
22673;SDS011;11504;43.334;21.918;2023-03-23T20:31:23;48.0;;;46.0;;
22673;SDS011;11504;43.334;21.918;2023-03-23T20:36:02;55.0;;;52.0;;
22673;SDS011;11504;43.334;21.918;2023-03-23T20:40:41;55.0;;;52.0;;
22673;SDS011;11504;43.334;21.918;2023-03-23T20:45:17;62.0;;;59.0;;
22673;SDS011;11504;43.334;21.918;2023-03-23T20:49:54;62.0;;;59.0;;
22673;SDS011;11504;43.334;21.918;2023-03-23T20:54:33;47.0;;;44.0;;
22673;SDS011;11504;43.334;21.918;2023-03-23T20:59:11;47.0;;;44.0;;
22673;SDS011;11504;43.334;21.918;2023-03-23T21:03:52;47.0;;;44.0;;
22673;SDS011;11504;43.334;21.918;2023-03-23T21:08:30;32.0;;;30.0;;
22673;SDS011;11504;43.334;21.918;2023-03-23T21:13:08;32.0;;;30.0;;
22673;SDS011;11504;43.334;21.918;2023-03-23T21:17:46;51.0;;;48.0;;
22673;SDS011;11504;43.334;21.918;2023-03-23T21:22:22;51.0;;;48.0;;
22673;SDS011;11504;43.334;21.918;2023-03-23T21:27:00;70.0;;;67.0;;
22673;SDS011;11504;43.334;21.918;2023-03-23T21:31:38;70.0;;;67.0;;
22673;SDS011;11504;43.334;21.918;2023-03-23T21:36:15;48.0;;;46.0;;
22673;SDS011;11504;43.334;21.918;2023-03-23T21:40:54;48.0;;;46.0;;
22673;SDS011;11504;43.334;21.918;2023-03-23T21:45:42;26.0;;;24.0;;
22673;SDS011;11504;43.334;21.918;2023-03-23T21:50:20;26.0;;;24.0;;
22673;SDS011;11504;43.334;21.918;2023-03-23T21:54:59;30.0;;;28.0;;
22673;SDS011;11504;43.334;21.918;2023-03-23T21:59:35;30.0;;;28.0;;
22673;SDS011;11504;43.334;21.918;2023-03-23T22:04:12;34.0;;;33.0;;
22673;SDS011;11504;43.334;21.918;2023-03-23T22:08:48;34.0;;;33.0;;
22673;SDS011;11504;43.334;21.918;2023-03-23T22:13:26;34.0;;;33.0;;
22673;SDS011;11504;43.334;21.918;2023-03-23T22:18:04;36.0;;;34.0;;
22673;SDS011;11504;43.334;21.918;2023-03-23T22:22:41;36.0;;;34.0;;
22673;SDS011;11504;43.334;21.918;2023-03-23T22:27:17;37.0;;;34.0;;
22673;SDS011;11504;43.334;21.918;2023-03-23T22:31:54;37.0;;;34.0;;
22673;SDS011;11504;43.334;21.918;2023-03-23T22:36:32;34.0;;;32.0;;
22673;SDS011;11504;43.334;21.918;2023-03-23T22:41:18;34.0;;;32.0;;
22673;SDS011;11504;43.334;21.918;2023-03-23T22:45:59;30.0;;;29.0;;
22673;SDS011;11504;43.334;21.918;2023-03-23T22:50:36;30.0;;;29.0;;
22673;SDS011;11504;43.334;21.918;2023-03-23T22:55:13;32.0;;;30.0;;
22673;SDS011;11504;43.334;21.918;2023-03-23T22:59:51;32.0;;;30.0;;
22673;SDS011;11504;43.334;21.918;2023-03-23T23:04:28;34.0;;;32.0;;
22673;SDS011;11504;43.334;21.918;2023-03-23T23:09:05;34.0;;;32.0;;
22673;SDS011;11504;43.334;21.918;2023-03-23T23:13:45;34.0;;;32.0;;
22673;SDS011;11504;43.334;21.918;2023-03-23T23:18:25;27.0;;;26.0;;
22673;SDS011;11504;43.334;21.918;2023-03-23T23:23:04;27.0;;;26.0;;
22673;SDS011;11504;43.334;21.918;2023-03-23T23:27:40;20.0;;;19.0;;
22673;SDS011;11504;43.334;21.918;2023-03-23T23:32:17;20.0;;;19.0;;
22673;SDS011;11504;43.334;21.918;2023-03-23T23:36:54;22.0;;;22.0;;
22673;SDS011;11504;43.334;21.918;2023-03-23T23:41:32;22.0;;;22.0;;
22673;SDS011;11504;43.334;21.918;2023-03-23T23:46:11;25.0;;;24.0;;
22673;SDS011;11504;43.334;21.918;2023-03-23T23:50:49;25.0;;;24.0;;
22673;SDS011;11504;43.334;21.918;2023-03-23T23:55:27;28.0;;;27.0;;
